PUJ weather

Punta Cana International Airport
Punta Cana, La Altagracia Province, Dominican Republic

Public forecast

Using degrees Celsius for public forecast. Weather courtesy of forecast.io.

Current aviation weather report (METAR) for Punta Cana International Airport

Retrieved 2019/10/19 08:00 UTC (35 minutes ago):

MDPC 190800Z 01003KT 9999 SCT016 25/24 Q1012

Aviation forecast (TAF) for Punta Cana International Airport

Retrieved 2019/10/19 06:35 UTC (2 hours ago):

TAF MDPC 190400Z 1906/2006 08008KT 9999 SCT018 PROB30 1906/1912 8000-SH BKN016 SCT070